createdAt,value
2022-08-27T00:02:22.876Z,24.60
2022-08-27T00:04:51.890Z,24.70
2022-08-27T00:07:20.707Z,24.80
2022-08-27T00:09:49.254Z,24.90
2022-08-27T00:12:17.973Z,24.90
2022-08-27T00:14:46.811Z,25.00
2022-08-27T00:17:16.745Z,25.00
2022-08-27T00:19:45.259Z,25.00
2022-08-27T00:22:13.873Z,24.90
2022-08-27T00:24:48.895Z,24.90
2022-08-27T00:27:18.479Z,24.90
2022-08-27T00:29:47.281Z,25.00
2022-08-27T00:32:18.275Z,25.00
2022-08-27T00:34:47.114Z,25.00
2022-08-27T00:37:15.896Z,24.90
2022-08-27T00:39:44.594Z,24.90
2022-08-27T00:42:13.998Z,24.90
2022-08-27T00:44:42.731Z,24.90
2022-08-27T00:47:14.769Z,24.80
2022-08-27T00:49:49.076Z,24.80
2022-08-27T00:52:22.702Z,24.90
2022-08-27T00:54:54.751Z,24.80
2022-08-27T00:57:23.603Z,24.80
2022-08-27T00:59:56.739Z,24.80
2022-08-27T01:02:29.601Z,24.80
2022-08-27T01:05:03.597Z,24.80
2022-08-27T01:07:34.798Z,24.70
2022-08-27T01:10:07.323Z,24.70
2022-08-27T01:12:36.644Z,24.80
2022-08-27T01:15:11.945Z,24.80
2022-08-27T01:17:45.038Z,24.80
2022-08-27T01:20:20.257Z,24.70
2022-08-27T01:22:58.400Z,24.60
2022-08-27T01:25:29.589Z,24.60
2022-08-27T01:28:00.773Z,24.60
2022-08-27T01:30:29.680Z,24.60
2022-08-27T01:32:58.314Z,24.50
2022-08-27T01:35:27.611Z,24.40
2022-08-27T01:37:57.229Z,24.40
2022-08-27T01:40:27.409Z,24.30
2022-08-27T01:42:58.396Z,24.40
2022-08-27T01:45:28.743Z,24.40
2022-08-27T01:47:58.890Z,24.40
2022-08-27T01:50:31.958Z,24.50
2022-08-27T01:53:04.376Z,24.40
2022-08-27T01:55:35.684Z,24.30
2022-08-27T01:58:05.219Z,24.20
2022-08-27T02:00:37.985Z,24.20
2022-08-27T02:03:08.382Z,24.20
2022-08-27T02:05:45.003Z,24.10
2022-08-27T02:08:16.279Z,24.10
2022-08-27T02:10:47.419Z,24.10
2022-08-27T02:13:17.195Z,24.00
2022-08-27T02:15:46.549Z,24.10
2022-08-27T02:18:15.859Z,24.00
2022-08-27T02:20:46.289Z,24.00
2022-08-27T02:23:15.505Z,24.00
2022-08-27T02:25:47.421Z,24.00
2022-08-27T02:28:16.500Z,23.90
2022-08-27T02:30:45.126Z,23.90
2022-08-27T02:33:13.753Z,23.80
2022-08-27T02:35:44.516Z,23.80
2022-08-27T02:38:14.375Z,23.80
2022-08-27T02:40:43.167Z,23.90
2022-08-27T02:43:15.835Z,23.80
2022-08-27T02:45:45.605Z,23.80
2022-08-27T02:48:14.469Z,23.90
2022-08-27T02:50:43.824Z,23.80
2022-08-27T02:53:12.729Z,23.90
2022-08-27T02:55:41.256Z,23.80
2022-08-27T02:58:10.135Z,23.80
2022-08-27T03:00:40.349Z,23.80
2022-08-27T03:03:10.765Z,23.80
2022-08-27T03:05:39.505Z,23.80
2022-08-27T03:08:10.087Z,23.80
2022-08-27T03:10:38.975Z,23.80
2022-08-27T03:13:07.625Z,23.80
2022-08-27T03:15:36.181Z,23.80
2022-08-27T03:18:21.963Z,23.80
2022-08-27T03:20:53.338Z,23.70
2022-08-27T03:23:25.574Z,23.80
2022-08-27T03:25:56.651Z,23.70
2022-08-27T03:28:27.213Z,23.70
2022-08-27T03:30:58.722Z,23.70
2022-08-27T03:33:30.337Z,23.60
2022-08-27T03:35:59.310Z,23.60
2022-08-27T03:38:28.520Z,23.50
2022-08-27T03:40:57.499Z,23.50
2022-08-27T03:43:26.287Z,23.40
2022-08-27T03:46:01.495Z,23.30
2022-08-27T03:48:34.306Z,23.40
2022-08-27T03:51:08.159Z,23.40
2022-08-27T03:53:38.556Z,23.40
2022-08-27T03:56:08.361Z,23.40
2022-08-27T03:58:39.264Z,23.40
2022-08-27T04:01:08.529Z,23.40
2022-08-27T04:03:39.244Z,23.30
2022-08-27T04:06:08.418Z,23.30
2022-08-27T04:08:37.334Z,23.30
2022-08-27T04:11:07.909Z,23.30
2022-08-27T04:13:36.494Z,23.30
2022-08-27T04:16:07.419Z,23.30
2022-08-27T04:18:37.555Z,23.40
2022-08-27T04:21:11.379Z,23.40
2022-08-27T04:23:42.626Z,23.40
2022-08-27T04:26:12.564Z,23.40
2022-08-27T04:28:41.198Z,23.40
2022-08-27T04:31:16.595Z,23.40
2022-08-27T04:33:50.595Z,23.40
2022-08-27T04:36:20.698Z,23.40
2022-08-27T04:38:49.381Z,23.50
2022-08-27T04:41:21.660Z,23.60
2022-08-27T04:43:52.494Z,23.60
2022-08-27T04:46:22.924Z,23.60
2022-08-27T04:48:53.858Z,23.60
2022-08-27T04:51:23.752Z,23.60
2022-08-27T04:53:53.206Z,23.60
2022-08-27T04:56:23.363Z,23.60
2022-08-27T04:58:52.731Z,23.60
2022-08-27T05:01:23.647Z,23.70
2022-08-27T05:03:54.392Z,23.70
2022-08-27T05:06:24.276Z,23.70
2022-08-27T05:08:54.072Z,23.80
2022-08-27T05:11:23.796Z,23.80
2022-08-27T05:13:52.396Z,23.80
2022-08-27T05:16:23.898Z,23.80
2022-08-27T05:18:54.618Z,23.80
2022-08-27T05:21:25.643Z,23.80
2022-08-27T05:23:55.640Z,23.90
2022-08-27T05:26:24.343Z,23.90
2022-08-27T05:28:53.080Z,24.00
2022-08-27T05:31:22.890Z,24.10
2022-08-27T05:33:51.611Z,24.20
2022-08-27T05:36:26.397Z,24.20
2022-08-27T05:38:56.289Z,24.30
2022-08-27T05:41:33.750Z,24.30
2022-08-27T05:44:18.603Z,24.40
2022-08-27T05:46:53.914Z,24.40
2022-08-27T05:49:22.492Z,24.50
2022-08-27T05:51:52.629Z,24.60
2022-08-27T05:54:21.361Z,24.60
2022-08-27T05:56:51.123Z,24.70
2022-08-27T05:59:38.113Z,24.80
2022-08-27T06:02:07.857Z,24.80
2022-08-27T06:04:36.443Z,25.00
2022-08-27T06:07:09.394Z,25.10
2022-08-27T06:09:38.057Z,25.20
2022-08-27T06:12:07.493Z,25.30
2022-08-27T06:14:37.387Z,25.50
2022-08-27T06:17:06.468Z,25.60
2022-08-27T06:19:36.696Z,25.70
2022-08-27T06:22:09.961Z,25.70
2022-08-27T06:24:40.931Z,25.80
2022-08-27T06:27:11.718Z,25.80
2022-08-27T06:29:41.115Z,25.90
2022-08-27T06:32:10.235Z,25.90
2022-08-27T06:34:39.404Z,26.00
2022-08-27T06:37:10.139Z,26.00
2022-08-27T06:39:39.841Z,26.00
2022-08-27T06:42:12.395Z,26.00
2022-08-27T06:44:42.162Z,26.10
2022-08-27T06:47:10.882Z,26.00
2022-08-27T06:49:41.565Z,26.10
2022-08-27T06:52:16.826Z,26.20
2022-08-27T06:54:45.997Z,26.30
2022-08-27T06:57:14.587Z,26.40
2022-08-27T06:59:44.726Z,26.50
2022-08-27T07:02:13.579Z,26.50
2022-08-27T07:04:42.144Z,26.60
2022-08-27T07:07:13.839Z,26.70
2022-08-27T07:09:46.300Z,26.70
2022-08-27T07:12:15.321Z,26.70
2022-08-27T07:14:43.894Z,26.70
2022-08-27T07:17:16.412Z,26.80
2022-08-27T07:19:45.703Z,26.80
2022-08-27T07:22:14.390Z,27.00
2022-08-27T07:24:43.015Z,27.10
2022-08-27T07:27:13.347Z,27.10
2022-08-27T07:29:42.018Z,27.10
2022-08-27T07:32:10.589Z,27.20
2022-08-27T07:34:39.170Z,27.30
2022-08-27T07:37:08.047Z,27.30
2022-08-27T07:39:36.718Z,27.30
2022-08-27T07:42:22.952Z,27.30
2022-08-27T07:44:52.980Z,27.40
2022-08-27T07:47:21.570Z,27.50
2022-08-27T07:49:50.376Z,27.60
2022-08-27T07:52:21.648Z,27.40
2022-08-27T07:54:52.258Z,27.30
2022-08-27T07:57:20.779Z,27.30
2022-08-27T07:59:49.487Z,27.40
2022-08-27T08:02:19.537Z,27.50
2022-08-27T08:04:48.272Z,27.50
2022-08-27T08:07:16.849Z,27.50
2022-08-27T08:09:45.448Z,27.70
2022-08-27T08:12:15.266Z,27.80
2022-08-27T08:14:43.857Z,27.90
2022-08-27T08:17:13.108Z,28.00
2022-08-27T08:19:57.231Z,28.10
2022-08-27T08:22:32.901Z,28.10
2022-08-27T08:25:01.566Z,28.10
2022-08-27T08:27:30.187Z,28.10
2022-08-27T08:29:58.864Z,28.30
2022-08-27T08:32:27.475Z,28.30
2022-08-27T08:35:00.113Z,28.40
2022-08-27T08:37:29.361Z,28.30
2022-08-27T08:39:58.202Z,28.30
2022-08-27T08:42:33.056Z,28.30
2022-08-27T08:45:04.550Z,28.40
2022-08-27T08:47:39.965Z,28.40
2022-08-27T08:50:19.227Z,28.50
2022-08-27T08:52:55.368Z,28.60
2022-08-27T08:55:35.358Z,28.60
2022-08-27T08:58:22.556Z,28.60
2022-08-27T09:00:56.034Z,28.60
2022-08-27T09:03:25.458Z,28.60
2022-08-27T09:06:00.824Z,28.70
2022-08-27T09:08:40.494Z,28.80
2022-08-27T09:11:18.993Z,28.90
2022-08-27T09:13:52.691Z,29.00
2022-08-27T09:16:21.554Z,29.10
2022-08-27T09:18:51.101Z,29.20
2022-08-27T09:21:32.315Z,29.30
2022-08-27T09:24:07.567Z,29.40
2022-08-27T09:26:40.296Z,29.30
2022-08-27T09:29:20.149Z,29.30
2022-08-27T09:31:55.596Z,29.40
2022-08-27T09:34:27.272Z,29.40
2022-08-27T09:37:06.789Z,29.60
2022-08-27T09:39:40.479Z,29.70
2022-08-27T09:42:10.029Z,29.70
2022-08-27T09:44:53.444Z,29.70
2022-08-27T09:47:22.494Z,29.70
2022-08-27T09:50:01.274Z,29.80
2022-08-27T09:52:46.461Z,29.70
2022-08-27T09:55:14.972Z,29.80
2022-08-27T09:57:43.731Z,29.90
2022-08-27T10:00:19.119Z,30.00
2022-08-27T10:02:53.430Z,30.10
2022-08-27T10:05:31.142Z,30.20
2022-08-27T10:08:04.013Z,30.30
2022-08-27T10:10:41.851Z,30.30
2022-08-27T10:13:16.694Z,30.40
2022-08-27T10:15:58.564Z,30.30
2022-08-27T10:18:38.246Z,30.20
2022-08-27T10:21:15.584Z,30.20
2022-08-27T10:23:53.994Z,30.30
2022-08-27T10:26:31.873Z,30.40
2022-08-27T10:29:13.850Z,30.50
2022-08-27T10:32:00.580Z,30.60
2022-08-27T10:34:39.389Z,30.70
2022-08-27T10:37:23.007Z,30.90
2022-08-27T10:40:06.663Z,30.80
2022-08-27T10:42:40.515Z,31.10
2022-08-27T10:45:31.137Z,31.20
2022-08-27T10:48:10.833Z,31.20
2022-08-27T10:50:47.810Z,31.30
2022-08-27T10:53:28.343Z,31.50
2022-08-27T10:56:09.664Z,31.60
2022-08-27T10:58:55.565Z,31.50
2022-08-27T11:01:32.901Z,31.60
2022-08-27T11:04:07.158Z,31.50
2022-08-27T11:06:39.433Z,31.60
2022-08-27T11:09:15.891Z,31.80
2022-08-27T11:14:46.758Z,31.40
2022-08-27T11:17:19.991Z,31.30
2022-08-27T11:19:58.337Z,31.40
2022-08-27T11:22:34.571Z,31.60
2022-08-27T11:25:10.461Z,31.70
2022-08-27T11:27:41.836Z,31.90
2022-08-27T11:30:20.102Z,31.90
2022-08-27T11:32:59.270Z,32.00
2022-08-27T11:35:37.179Z,31.80
2022-08-27T11:38:32.126Z,31.60
2022-08-27T11:41:16.017Z,31.50
2022-08-27T11:43:47.498Z,31.60
2022-08-27T11:46:25.118Z,31.40
2022-08-27T11:48:59.908Z,31.40
2022-08-27T11:51:34.416Z,31.40
2022-08-27T11:54:07.255Z,31.50
2022-08-27T11:56:41.464Z,31.90
2022-08-27T11:59:22.620Z,32.00
2022-08-27T12:01:52.802Z,32.00
2022-08-27T12:04:25.804Z,32.20
2022-08-27T12:07:03.066Z,32.20
2022-08-27T12:09:44.030Z,32.20
2022-08-27T12:12:22.147Z,32.40
2022-08-27T12:14:59.398Z,32.60
2022-08-27T12:17:42.418Z,32.70
2022-08-27T12:20:19.756Z,32.40
2022-08-27T12:23:19.323Z,32.40
2022-08-27T12:25:58.168Z,32.70
2022-08-27T12:28:28.130Z,32.40
2022-08-27T12:30:58.791Z,32.20
2022-08-27T12:33:33.184Z,32.30
2022-08-27T12:36:09.750Z,32.30
2022-08-27T12:38:50.379Z,32.20
2022-08-27T12:41:32.055Z,32.00
2022-08-27T12:44:06.193Z,32.30
2022-08-27T12:47:04.314Z,32.30
2022-08-27T12:49:39.632Z,32.50
2022-08-27T12:52:20.229Z,32.80
2022-08-27T12:55:09.113Z,32.70
2022-08-27T12:57:43.696Z,32.50
2022-08-27T13:00:18.962Z,32.30
2022-08-27T13:03:14.706Z,32.50
2022-08-27T13:05:47.448Z,32.60
2022-08-27T13:08:21.656Z,32.70
2022-08-27T13:10:50.836Z,32.80
2022-08-27T13:13:22.137Z,32.70
2022-08-27T13:15:53.446Z,32.50
2022-08-27T13:18:24.382Z,32.60
2022-08-27T13:21:03.557Z,32.80
2022-08-27T13:23:32.838Z,32.80
2022-08-27T13:26:06.766Z,32.50
2022-08-27T13:28:38.097Z,32.80
2022-08-27T13:31:09.473Z,33.20
2022-08-27T13:33:41.077Z,33.30
2022-08-27T13:36:11.509Z,33.40
2022-08-27T13:38:44.523Z,33.20
2022-08-27T13:41:24.879Z,33.10
2022-08-27T13:43:58.530Z,33.20
2022-08-27T13:46:31.096Z,33.20
2022-08-27T13:49:02.058Z,33.20
2022-08-27T13:51:33.639Z,33.30
2022-08-27T13:54:13.828Z,33.50
2022-08-27T13:56:58.661Z,33.90
2022-08-27T13:59:30.514Z,34.10
2022-08-27T14:02:02.174Z,34.80
2022-08-27T14:04:40.208Z,34.40
2022-08-27T14:07:13.706Z,34.10
2022-08-27T14:09:54.062Z,34.10
2022-08-27T14:12:32.826Z,34.10
2022-08-27T14:15:16.713Z,33.90
2022-08-27T14:17:46.984Z,33.90
2022-08-27T14:20:18.091Z,33.90
2022-08-27T14:22:47.259Z,34.00
2022-08-27T14:25:17.132Z,34.20
2022-08-27T14:27:54.616Z,34.40
2022-08-27T14:30:29.728Z,34.20
2022-08-27T14:33:00.791Z,34.70
2022-08-27T14:35:32.489Z,34.70
2022-08-27T14:38:05.479Z,34.30
2022-08-27T14:40:34.014Z,34.30
2022-08-27T14:43:02.563Z,34.20
2022-08-27T14:45:31.066Z,34.10
2022-08-27T14:48:02.014Z,34.30
2022-08-27T14:50:33.433Z,33.90
2022-08-27T14:53:01.983Z,33.60
2022-08-27T14:55:31.313Z,33.50
2022-08-27T14:58:00.099Z,33.30
2022-08-27T15:00:30.407Z,33.20
2022-08-27T15:02:59.052Z,33.30
2022-08-27T15:05:28.238Z,33.40
2022-08-27T15:07:58.693Z,33.50
2022-08-27T15:10:27.189Z,33.50
2022-08-27T15:12:56.006Z,33.50
2022-08-27T15:15:25.098Z,33.30
2022-08-27T15:17:53.605Z,33.10
2022-08-27T15:20:22.594Z,33.00
2022-08-27T15:22:53.612Z,32.80
2022-08-27T15:25:24.375Z,32.80
2022-08-27T15:27:54.202Z,32.80
2022-08-27T15:30:26.869Z,32.60
2022-08-27T15:32:56.194Z,32.50
2022-08-27T15:35:27.543Z,32.10
2022-08-27T15:37:58.068Z,32.00
2022-08-27T15:40:30.135Z,32.00
2022-08-27T15:43:02.175Z,31.90
2022-08-27T15:45:32.424Z,31.60
2022-08-27T15:48:01.542Z,31.50
2022-08-27T15:50:31.301Z,31.40
2022-08-27T15:53:03.076Z,31.40
2022-08-27T15:55:34.932Z,31.20
2022-08-27T15:58:03.757Z,31.10
2022-08-27T16:00:34.378Z,31.10
2022-08-27T16:03:04.368Z,31.20
2022-08-27T16:05:37.218Z,30.90
2022-08-27T16:08:07.516Z,31.00
2022-08-27T16:10:37.625Z,31.10
2022-08-27T16:13:06.197Z,31.10
2022-08-27T16:15:38.335Z,31.10
2022-08-27T16:18:07.268Z,31.20
2022-08-27T16:20:35.722Z,31.30
2022-08-27T16:23:05.009Z,31.40
2022-08-27T16:25:33.560Z,31.20
2022-08-27T16:28:03.626Z,31.20
2022-08-27T16:30:32.154Z,31.20
2022-08-27T16:33:01.135Z,31.50
2022-08-27T16:35:29.655Z,31.60
2022-08-27T16:37:58.125Z,31.60
2022-08-27T16:40:26.871Z,31.80
2022-08-27T16:42:55.394Z,31.80
2022-08-27T16:45:27.277Z,31.60
2022-08-27T16:48:13.480Z,31.30
2022-08-27T16:50:43.106Z,30.90
2022-08-27T16:53:14.387Z,30.90
2022-08-27T16:55:45.415Z,30.90
2022-08-27T16:58:19.077Z,30.70
2022-08-27T17:00:52.139Z,30.50
2022-08-27T17:03:23.020Z,30.40
2022-08-27T17:05:51.819Z,30.30
2022-08-27T17:08:26.225Z,30.00
2022-08-27T17:10:57.573Z,29.80
2022-08-27T17:13:29.353Z,29.70
2022-08-27T17:16:01.630Z,29.70
2022-08-27T17:18:31.751Z,29.70
2022-08-27T17:21:00.961Z,29.60
2022-08-27T17:23:33.825Z,29.50
2022-08-27T17:26:04.092Z,29.40
2022-08-27T17:28:33.435Z,29.40
2022-08-27T17:31:04.490Z,29.30
2022-08-27T17:33:36.972Z,29.10
2022-08-27T17:36:06.619Z,29.20
2022-08-27T17:38:37.617Z,29.10
2022-08-27T17:41:12.789Z,29.10
2022-08-27T17:43:42.439Z,29.00
2022-08-27T17:46:13.707Z,28.80
2022-08-27T17:48:43.296Z,28.70
2022-08-27T17:51:13.340Z,28.70
2022-08-27T17:53:48.326Z,28.70
2022-08-27T17:56:18.106Z,28.70
2022-08-27T17:58:46.809Z,28.60
2022-08-27T18:01:18.314Z,28.60
2022-08-27T18:03:48.938Z,28.60
2022-08-27T18:06:17.477Z,28.60
2022-08-27T18:08:46.259Z,28.60
2022-08-27T18:11:16.598Z,28.70
2022-08-27T18:13:46.421Z,28.70
2022-08-27T18:16:16.403Z,28.60
2022-08-27T18:18:44.890Z,28.60
2022-08-27T18:21:13.476Z,28.70
2022-08-27T18:23:49.424Z,28.70
2022-08-27T18:26:21.531Z,28.70
2022-08-27T18:28:50.323Z,28.70
2022-08-27T18:31:29.097Z,28.70
2022-08-27T18:33:57.700Z,28.60
2022-08-27T18:36:27.521Z,28.50
2022-08-27T18:38:56.404Z,28.50
2022-08-27T18:41:26.678Z,28.50
2022-08-27T18:43:56.097Z,28.30
2022-08-27T18:46:26.019Z,28.10
2022-08-27T18:48:54.631Z,28.00
2022-08-27T18:51:23.531Z,27.90
2022-08-27T18:53:52.000Z,27.90
2022-08-27T18:56:21.705Z,27.80
2022-08-27T18:58:50.305Z,27.80
2022-08-27T19:01:21.694Z,27.70
2022-08-27T19:03:53.363Z,27.70
2022-08-27T19:06:23.334Z,27.60
2022-08-27T19:08:52.509Z,27.60
2022-08-27T19:11:21.063Z,27.50
2022-08-27T19:13:50.488Z,27.40
2022-08-27T19:16:23.638Z,27.30
2022-08-27T19:18:53.814Z,27.30
2022-08-27T19:21:22.360Z,27.30
2022-08-27T19:23:52.776Z,27.40
2022-08-27T19:26:24.760Z,27.40
2022-08-27T19:28:53.769Z,27.40
2022-08-27T19:31:22.368Z,27.40
2022-08-27T19:33:51.414Z,27.50
2022-08-27T19:36:23.180Z,27.50
2022-08-27T19:38:54.787Z,27.50
2022-08-27T19:41:27.293Z,27.40
2022-08-27T19:43:56.554Z,27.40
2022-08-27T19:46:26.651Z,27.40
2022-08-27T19:48:55.870Z,27.40
2022-08-27T19:51:26.026Z,27.30
2022-08-27T19:53:54.615Z,27.30
2022-08-27T19:56:23.109Z,27.30
2022-08-27T19:58:56.591Z,27.20
2022-08-27T20:01:26.308Z,27.10
2022-08-27T20:03:56.811Z,27.00
2022-08-27T20:06:29.348Z,27.00
2022-08-27T20:08:58.138Z,27.10
2022-08-27T20:11:26.919Z,27.00
2022-08-27T20:13:55.372Z,27.00
2022-08-27T20:16:24.344Z,26.90
2022-08-27T20:18:53.064Z,26.70
2022-08-27T20:21:21.860Z,26.70
2022-08-27T20:23:51.793Z,26.70
2022-08-27T20:26:21.757Z,26.70
2022-08-27T20:28:50.320Z,26.60
2022-08-27T20:31:19.318Z,26.40
2022-08-27T20:33:47.843Z,26.40
2022-08-27T20:36:16.691Z,26.50
2022-08-27T20:38:45.515Z,26.50
2022-08-27T20:41:15.430Z,26.40
2022-08-27T20:43:43.975Z,26.40
2022-08-27T20:46:12.623Z,26.20
2022-08-27T20:48:41.192Z,26.20
2022-08-27T20:51:10.273Z,26.10
2022-08-27T20:53:38.877Z,26.20
2022-08-27T20:56:07.645Z,26.20
2022-08-27T20:58:54.656Z,26.10
2022-08-27T21:01:24.034Z,26.10
2022-08-27T21:03:52.571Z,26.10
2022-08-27T21:06:24.940Z,26.10
2022-08-27T21:08:54.792Z,26.10
2022-08-27T21:11:23.373Z,26.20
2022-08-27T21:13:56.433Z,26.00
2022-08-27T21:16:25.757Z,25.80
2022-08-27T21:18:55.680Z,25.70
2022-08-27T21:21:25.030Z,25.70
2022-08-27T21:23:53.474Z,25.80
2022-08-27T21:26:23.079Z,25.80
2022-08-27T21:28:55.767Z,25.80
2022-08-27T21:31:26.066Z,25.80
2022-08-27T21:33:56.193Z,25.80
2022-08-27T21:36:25.042Z,25.80
2022-08-27T21:38:53.503Z,25.70
2022-08-27T21:41:22.655Z,25.70
2022-08-27T21:43:52.894Z,25.70
2022-08-27T21:46:21.800Z,25.60
2022-08-27T21:48:58.545Z,25.60
2022-08-27T21:51:27.676Z,25.60
2022-08-27T21:53:56.170Z,25.50
2022-08-27T21:56:24.723Z,25.60
2022-08-27T21:58:54.699Z,25.60
2022-08-27T22:01:23.480Z,25.50
2022-08-27T22:03:52.523Z,25.50
2022-08-27T22:06:21.699Z,25.50
2022-08-27T22:08:50.385Z,25.50
2022-08-27T22:11:23.956Z,25.40
2022-08-27T22:13:54.542Z,25.50
2022-08-27T22:16:23.072Z,25.40
2022-08-27T22:18:54.728Z,25.30
2022-08-27T22:21:26.510Z,25.30
2022-08-27T22:23:55.055Z,25.40
2022-08-27T22:26:23.815Z,25.40
2022-08-27T22:28:53.788Z,25.40
2022-08-27T22:31:22.349Z,25.40
2022-08-27T22:33:50.836Z,25.40
2022-08-27T22:36:19.811Z,25.30
2022-08-27T22:38:48.278Z,25.20
2022-08-27T22:41:18.658Z,25.30
2022-08-27T22:43:47.408Z,25.30
2022-08-27T22:46:17.357Z,25.30
2022-08-27T22:48:45.997Z,25.50
2022-08-27T22:51:14.490Z,25.60
2022-08-27T22:53:43.213Z,25.70
2022-08-27T22:56:11.732Z,25.60
2022-08-27T22:58:40.716Z,25.50
2022-08-27T23:01:19.071Z,25.50
2022-08-27T23:03:47.937Z,25.50
2022-08-27T23:06:16.524Z,25.50
2022-08-27T23:08:47.299Z,25.30
2022-08-27T23:11:15.994Z,25.30
2022-08-27T23:13:45.367Z,25.20
2022-08-27T23:16:15.665Z,25.20
2022-08-27T23:18:45.765Z,25.00
2022-08-27T23:21:14.187Z,25.00
2022-08-27T23:23:42.683Z,25.00
2022-08-27T23:26:28.508Z,25.10
2022-08-27T23:28:59.858Z,25.10
2022-08-27T23:31:28.403Z,25.10
2022-08-27T23:33:58.747Z,25.00
2022-08-27T23:36:29.358Z,25.00
2022-08-27T23:38:58.735Z,25.10
2022-08-27T23:41:27.922Z,25.10
2022-08-27T23:43:56.433Z,25.10
2022-08-27T23:46:25.040Z,25.10
2022-08-27T23:48:54.473Z,25.10
2022-08-27T23:51:25.387Z,25.10
2022-08-27T23:53:53.895Z,25.00
2022-08-27T23:56:22.436Z,25.00
2022-08-27T23:58:59.895Z,25.00
